createdAt,value
2023-03-26T00:02:03.983Z,9.87
2023-03-26T00:04:33.622Z,9.37
2023-03-26T00:07:01.380Z,12.17
2023-03-26T00:09:29.847Z,15.87
2023-03-26T00:11:57.701Z,12.67
2023-03-26T00:14:26.639Z,14.37
2023-03-26T00:16:54.525Z,15.07
2023-03-26T00:19:23.587Z,13.70
2023-03-26T00:21:52.516Z,15.57
2023-03-26T00:24:20.245Z,11.77
2023-03-26T00:26:53.483Z,12.17
2023-03-26T00:29:22.871Z,14.30
2023-03-26T00:31:50.661Z,12.13
2023-03-26T00:34:18.885Z,13.40
2023-03-26T00:36:47.974Z,17.47
2023-03-26T00:39:17.695Z,17.67
2023-03-26T00:41:45.485Z,14.30
2023-03-26T00:44:13.299Z,14.30
2023-03-26T00:46:41.278Z,11.47
2023-03-26T00:49:10.841Z,10.23
2023-03-26T00:51:39.216Z,14.17
2023-03-26T00:54:09.153Z,9.03
2023-03-26T00:56:37.206Z,10.57
2023-03-26T00:59:05.390Z,13.13
2023-03-26T01:01:33.359Z,13.20
2023-03-26T01:04:24.119Z,7.53
2023-03-26T01:06:52.113Z,11.27
2023-03-26T01:09:26.329Z,8.20
2023-03-26T01:11:54.087Z,10.53
2023-03-26T01:14:24.484Z,7.33
2023-03-26T01:16:54.824Z,5.67
2023-03-26T01:19:30.271Z,6.27
2023-03-26T01:21:59.177Z,5.73
2023-03-26T01:24:28.299Z,6.77
2023-03-26T01:27:11.198Z,8.23
2023-03-26T01:29:45.390Z,11.17
2023-03-26T01:32:23.394Z,10.47
2023-03-26T01:35:01.613Z,13.53
2023-03-26T01:37:38.421Z,12.40
2023-03-26T01:40:16.173Z,13.03
2023-03-26T01:42:49.136Z,11.90
2023-03-26T01:45:19.147Z,9.83
2023-03-26T01:47:48.222Z,10.87
2023-03-26T01:50:16.176Z,11.67
2023-03-26T01:52:43.851Z,8.77
2023-03-26T01:55:14.390Z,12.37
2023-03-26T01:57:53.277Z,12.93
2023-03-26T02:00:29.079Z,10.90
2023-03-26T02:03:18.121Z,10.77
2023-03-26T02:05:54.286Z,14.03
2023-03-26T02:08:25.310Z,11.17
2023-03-26T02:10:58.516Z,11.63
2023-03-26T02:13:27.197Z,8.20
2023-03-26T02:15:59.909Z,7.43
2023-03-26T02:18:36.123Z,12.37
2023-03-26T02:21:06.299Z,13.27
2023-03-26T02:23:38.444Z,10.87
2023-03-26T02:26:09.750Z,10.70
2023-03-26T02:28:37.547Z,9.13
2023-03-26T02:31:05.869Z,11.90
2023-03-26T02:33:33.662Z,11.53
2023-03-26T02:36:02.049Z,8.93
2023-03-26T02:38:30.453Z,11.50
2023-03-26T02:40:58.724Z,10.37
2023-03-26T02:43:27.994Z,5.63
2023-03-26T02:45:56.267Z,6.53
2023-03-26T02:48:24.328Z,8.27
2023-03-26T02:50:54.286Z,8.23
2023-03-26T02:53:24.146Z,9.03
2023-03-26T02:55:52.241Z,7.77
2023-03-26T02:58:20.153Z,7.70
2023-03-26T03:00:50.873Z,9.60
2023-03-26T03:03:18.606Z,11.13
2023-03-26T03:05:46.339Z,7.33
2023-03-26T03:08:14.006Z,12.33
2023-03-26T03:10:42.439Z,7.17
2023-03-26T03:13:10.256Z,6.13
2023-03-26T03:15:37.986Z,9.47
2023-03-26T03:18:07.553Z,6.03
2023-03-26T03:20:35.786Z,8.73
2023-03-26T03:23:03.436Z,10.33
2023-03-26T03:25:32.532Z,8.53
2023-03-26T03:28:00.226Z,7.77
2023-03-26T03:30:27.960Z,7.80
2023-03-26T03:32:58.348Z,7.13
2023-03-26T03:35:27.892Z,12.93
2023-03-26T03:37:55.668Z,13.37
2023-03-26T03:40:23.380Z,9.10
2023-03-26T03:42:51.510Z,13.53
2023-03-26T03:45:20.342Z,7.67
2023-03-26T03:47:48.313Z,8.03
2023-03-26T03:50:16.179Z,11.47
2023-03-26T03:52:45.532Z,9.53
2023-03-26T03:55:14.009Z,10.73
2023-03-26T03:57:42.069Z,12.40
2023-03-26T04:00:11.789Z,12.03
2023-03-26T04:02:42.885Z,16.57
2023-03-26T04:05:11.693Z,11.70
2023-03-26T04:07:39.714Z,10.43
2023-03-26T04:10:10.888Z,9.80
2023-03-26T04:12:38.595Z,7.40
2023-03-26T04:15:07.299Z,7.80
2023-03-26T04:17:42.326Z,8.03
2023-03-26T04:20:14.702Z,7.73
2023-03-26T04:22:43.601Z,8.90
2023-03-26T04:25:15.509Z,19.23
2023-03-26T04:27:44.064Z,11.57
2023-03-26T04:30:16.094Z,8.90
2023-03-26T04:32:44.702Z,12.63
2023-03-26T04:35:16.404Z,8.30
2023-03-26T04:37:46.264Z,11.70
2023-03-26T04:40:19.383Z,10.73
2023-03-26T04:42:47.316Z,7.87
2023-03-26T04:45:17.588Z,8.50
2023-03-26T04:47:46.544Z,11.77
2023-03-26T04:50:14.602Z,8.40
2023-03-26T04:52:45.108Z,8.97
2023-03-26T04:55:23.149Z,14.17
2023-03-26T04:57:54.787Z,8.67
2023-03-26T05:00:22.731Z,7.50
2023-03-26T05:02:51.082Z,11.37
2023-03-26T05:05:19.208Z,11.67
2023-03-26T05:07:46.908Z,8.77
2023-03-26T05:10:17.754Z,10.57
2023-03-26T05:12:45.854Z,10.37
2023-03-26T05:15:14.225Z,10.80
2023-03-26T05:17:42.401Z,12.10
2023-03-26T05:20:18.297Z,8.50
2023-03-26T05:22:45.969Z,8.20
2023-03-26T05:25:13.666Z,6.33
2023-03-26T05:27:42.712Z,6.07
2023-03-26T05:30:10.880Z,10.17
2023-03-26T05:32:38.643Z,8.30
2023-03-26T05:35:07.561Z,11.03
2023-03-26T05:37:35.529Z,8.70
2023-03-26T05:40:04.114Z,7.13
2023-03-26T05:42:31.796Z,4.43
2023-03-26T05:45:00.839Z,7.53
2023-03-26T05:47:28.571Z,11.57
2023-03-26T05:49:56.272Z,9.47
2023-03-26T05:52:23.922Z,8.60
2023-03-26T05:54:51.583Z,10.93
2023-03-26T05:57:19.552Z,7.03
2023-03-26T05:59:47.241Z,7.97
2023-03-26T06:02:16.427Z,6.60
2023-03-26T06:04:45.779Z,8.50
2023-03-26T06:07:13.737Z,6.97
2023-03-26T06:09:41.525Z,8.53
2023-03-26T06:12:10.956Z,9.60
2023-03-26T06:14:38.809Z,8.13
2023-03-26T06:17:06.583Z,5.13
2023-03-26T06:19:35.616Z,9.50
2023-03-26T06:22:03.258Z,10.67
2023-03-26T06:24:31.174Z,9.10
2023-03-26T06:26:58.872Z,4.77
2023-03-26T06:29:26.987Z,5.07
2023-03-26T06:31:54.722Z,7.83
2023-03-26T06:34:22.716Z,8.63
2023-03-26T06:36:52.682Z,8.83
2023-03-26T06:39:20.740Z,10.60
2023-03-26T06:41:48.433Z,7.97
2023-03-26T06:44:16.295Z,7.20
2023-03-26T06:46:44.042Z,7.17
2023-03-26T06:49:11.749Z,8.87
2023-03-26T06:51:41.159Z,12.40
2023-03-26T06:54:10.646Z,11.50
2023-03-26T06:56:38.367Z,7.97
2023-03-26T06:59:06.107Z,10.77
2023-03-26T07:01:33.937Z,10.93
2023-03-26T07:04:01.622Z,9.50
2023-03-26T07:06:29.323Z,14.73
2023-03-26T07:08:57.493Z,8.77
2023-03-26T07:11:27.087Z,8.23
2023-03-26T07:13:56.263Z,11.10
2023-03-26T07:16:24.041Z,8.40
2023-03-26T07:18:52.058Z,15.67
2023-03-26T07:21:21.598Z,10.97
2023-03-26T07:23:50.318Z,9.67
2023-03-26T07:26:32.126Z,10.17
2023-03-26T07:29:10.438Z,10.40
2023-03-26T07:31:44.745Z,10.03
2023-03-26T07:34:27.032Z,10.90
2023-03-26T07:36:59.726Z,14.67
2023-03-26T07:39:40.556Z,10.30
2023-03-26T07:42:31.149Z,11.87
2023-03-26T07:45:04.155Z,7.47
2023-03-26T07:47:35.102Z,10.63
2023-03-26T07:50:03.427Z,13.00
2023-03-26T07:52:31.584Z,12.73
2023-03-26T07:54:59.831Z,8.90
2023-03-26T07:57:39.745Z,9.30
2023-03-26T08:00:15.154Z,12.43
2023-03-26T08:03:11.803Z,11.73
2023-03-26T08:05:44.486Z,10.80
2023-03-26T08:08:19.642Z,16.03
2023-03-26T08:11:01.030Z,12.83
2023-03-26T08:13:36.021Z,9.90
2023-03-26T08:16:11.096Z,9.70
2023-03-26T08:18:46.656Z,10.60
2023-03-26T08:21:18.569Z,12.00
2023-03-26T08:23:57.606Z,16.43
2023-03-26T08:26:35.340Z,12.53
2023-03-26T08:29:17.243Z,17.50
2023-03-26T08:31:47.657Z,15.73
2023-03-26T08:34:15.509Z,20.30
2023-03-26T08:36:43.248Z,11.77
2023-03-26T08:39:10.970Z,12.47
2023-03-26T08:42:08.732Z,14.80
2023-03-26T08:45:04.393Z,15.93
2023-03-26T08:47:59.122Z,12.97
2023-03-26T08:51:07.655Z,12.63
2023-03-26T08:54:15.670Z,15.97
2023-03-26T08:56:52.615Z,19.43
2023-03-26T09:00:13.561Z,9.40
2023-03-26T09:03:09.182Z,14.00
2023-03-26T09:06:18.411Z,15.80
2023-03-26T09:09:19.567Z,12.93
2023-03-26T09:12:20.444Z,13.87
2023-03-26T09:15:29.554Z,13.60
2023-03-26T09:18:29.859Z,17.07
2023-03-26T09:21:33.168Z,21.70
2023-03-26T09:24:36.267Z,16.07
2023-03-26T09:27:16.976Z,20.53
2023-03-26T09:30:20.559Z,18.57
2023-03-26T09:33:19.510Z,15.53
2023-03-26T09:35:54.132Z,14.03
2023-03-26T09:38:42.625Z,11.23
2023-03-26T09:41:18.377Z,16.43
2023-03-26T09:44:27.393Z,12.37
2023-03-26T09:47:11.895Z,14.27
2023-03-26T09:49:48.644Z,15.53
2023-03-26T09:52:41.774Z,12.60
2023-03-26T09:55:38.553Z,17.53
2023-03-26T09:58:22.282Z,17.77
2023-03-26T10:01:00.939Z,14.00
2023-03-26T10:03:40.881Z,15.60
2023-03-26T10:06:28.644Z,15.77
2023-03-26T10:09:18.997Z,11.47
2023-03-26T10:12:03.115Z,16.70
2023-03-26T10:14:40.164Z,14.50
2023-03-26T10:17:25.413Z,17.63
2023-03-26T10:20:08.741Z,10.73
2023-03-26T10:22:54.510Z,15.93
2023-03-26T10:25:42.114Z,19.90
2023-03-26T10:28:36.864Z,17.87
2023-03-26T10:31:36.274Z,14.13
2023-03-26T10:34:28.919Z,13.40
2023-03-26T10:37:09.295Z,15.77
2023-03-26T10:40:08.265Z,17.47
2023-03-26T10:43:01.003Z,15.83
2023-03-26T10:45:41.065Z,13.70
2023-03-26T10:48:28.752Z,14.80
2023-03-26T10:51:15.464Z,14.77
2023-03-26T10:53:47.840Z,12.93
2023-03-26T10:56:24.452Z,14.40
2023-03-26T10:58:52.446Z,10.07
2023-03-26T11:01:28.757Z,15.60
2023-03-26T11:03:57.218Z,12.57
2023-03-26T11:06:35.513Z,15.67
2023-03-26T11:09:12.225Z,16.17
2023-03-26T11:11:48.984Z,11.77
2023-03-26T11:14:33.761Z,14.83
2023-03-26T11:17:14.454Z,16.13
2023-03-26T11:20:05.892Z,10.30
2023-03-26T11:22:45.076Z,11.60
2023-03-26T11:25:36.879Z,10.43
2023-03-26T11:28:17.702Z,13.93
2023-03-26T11:30:49.613Z,10.83
2023-03-26T11:33:21.758Z,11.93
2023-03-26T11:35:52.519Z,19.20
2023-03-26T11:38:25.676Z,14.83
2023-03-26T11:40:56.043Z,10.97
2023-03-26T11:43:29.184Z,9.97
2023-03-26T11:45:57.615Z,15.80
2023-03-26T11:48:29.278Z,13.13
2023-03-26T11:51:02.931Z,10.30
2023-03-26T11:53:34.556Z,9.47
2023-03-26T11:56:05.751Z,12.80
2023-03-26T11:58:39.939Z,15.30
2023-03-26T12:01:15.782Z,13.73
2023-03-26T12:03:44.205Z,9.57
2023-03-26T12:06:25.569Z,13.33
2023-03-26T12:08:54.936Z,12.97
2023-03-26T12:11:28.165Z,11.43
2023-03-26T12:14:01.875Z,13.67
2023-03-26T12:16:29.689Z,10.20
2023-03-26T12:19:03.827Z,13.00
2023-03-26T12:21:31.543Z,12.70
2023-03-26T12:24:01.342Z,13.07
2023-03-26T12:26:46.916Z,10.20
2023-03-26T12:29:17.443Z,15.70
2023-03-26T12:31:52.248Z,14.07
2023-03-26T12:34:22.148Z,13.87
2023-03-26T12:36:53.053Z,14.70
2023-03-26T12:40:08.087Z,11.17
2023-03-26T12:44:49.857Z,12.17
2023-03-26T12:45:22.383Z,10.77
2023-03-26T12:48:02.502Z,12.37
2023-03-26T12:50:46.167Z,12.17
2023-03-26T12:53:40.895Z,12.13
2023-03-26T12:56:21.556Z,15.70
2023-03-26T12:59:23.489Z,13.43
2023-03-26T13:02:01.392Z,12.50
2023-03-26T13:05:04.406Z,8.40
2023-03-26T13:07:47.871Z,9.63
2023-03-26T13:10:49.429Z,13.27
2023-03-26T13:13:52.056Z,9.43
2023-03-26T13:16:30.981Z,12.70
2023-03-26T13:19:05.284Z,13.73
2023-03-26T13:21:45.990Z,13.00
2023-03-26T13:24:26.456Z,12.40
2023-03-26T13:27:05.582Z,13.57
2023-03-26T13:29:41.690Z,17.70
2023-03-26T13:32:17.544Z,11.13
2023-03-26T13:35:01.975Z,11.83
2023-03-26T13:37:35.718Z,10.50
2023-03-26T13:40:18.015Z,12.53
2023-03-26T13:42:57.543Z,14.17
2023-03-26T13:45:41.770Z,13.27
2023-03-26T13:48:17.371Z,7.60
2023-03-26T13:50:57.179Z,12.93
2023-03-26T13:53:29.270Z,15.30
2023-03-26T13:56:00.244Z,15.13
2023-03-26T13:58:36.283Z,9.50
2023-03-26T14:01:09.356Z,11.57
2023-03-26T14:03:48.035Z,13.77
2023-03-26T14:06:29.413Z,9.70
2023-03-26T14:09:02.672Z,10.23
2023-03-26T14:11:43.702Z,13.93
2023-03-26T14:14:15.094Z,13.83
2023-03-26T14:16:48.083Z,9.90
2023-03-26T14:19:36.002Z,12.57
2023-03-26T14:22:18.879Z,9.33
2023-03-26T14:25:02.711Z,9.53
2023-03-26T14:27:41.669Z,11.50
2023-03-26T14:30:28.512Z,11.67
2023-03-26T14:33:13.740Z,12.97
2023-03-26T14:35:50.222Z,11.30
2023-03-26T14:38:41.716Z,13.00
2023-03-26T14:41:24.236Z,12.17
2023-03-26T14:44:24.947Z,9.33
2023-03-26T14:47:08.224Z,17.70
2023-03-26T14:49:51.818Z,12.77
2023-03-26T14:52:30.728Z,15.87
2023-03-26T14:55:04.973Z,11.73
2023-03-26T14:57:56.844Z,14.37
2023-03-26T15:01:04.328Z,12.10
2023-03-26T15:04:08.148Z,8.07
2023-03-26T15:07:04.251Z,12.10
2023-03-26T15:10:22.596Z,12.83
2023-03-26T15:13:06.386Z,11.03
2023-03-26T15:16:04.485Z,12.67
2023-03-26T15:18:53.757Z,14.60
2023-03-26T15:21:58.714Z,15.57
2023-03-26T15:25:08.179Z,11.60
2023-03-26T15:27:54.680Z,11.87
2023-03-26T15:31:16.563Z,11.30
2023-03-26T15:34:20.010Z,8.37
2023-03-26T15:37:18.714Z,8.73
2023-03-26T15:40:19.880Z,17.97
2023-03-26T15:43:01.633Z,7.80
2023-03-26T15:45:36.470Z,9.90
2023-03-26T15:48:39.553Z,11.50
2023-03-26T15:51:22.379Z,11.77
2023-03-26T15:53:56.226Z,11.50
2023-03-26T15:56:49.187Z,13.20
2023-03-26T15:59:34.888Z,8.80
2023-03-26T16:02:16.259Z,13.47
2023-03-26T16:04:51.882Z,15.83
2023-03-26T16:07:41.288Z,12.33
2023-03-26T16:10:29.203Z,7.70
2023-03-26T16:13:36.143Z,10.77
2023-03-26T16:16:45.949Z,7.27
2023-03-26T16:19:40.975Z,9.23
2023-03-26T16:22:15.944Z,7.57
2023-03-26T16:24:47.632Z,8.33
2023-03-26T16:27:35.115Z,8.60
2023-03-26T16:30:27.378Z,9.57
2023-03-26T16:32:58.716Z,8.00
2023-03-26T16:35:56.918Z,7.03
2023-03-26T16:38:27.295Z,10.33
2023-03-26T16:41:02.201Z,12.47
2023-03-26T16:43:47.783Z,7.20
2023-03-26T16:46:29.659Z,9.83
2023-03-26T16:49:04.720Z,5.07
2023-03-26T16:51:50.760Z,7.13
2023-03-26T16:54:27.588Z,7.53
2023-03-26T16:57:01.835Z,8.13
2023-03-26T16:59:43.978Z,9.17
2023-03-26T17:02:21.761Z,4.57
2023-03-26T17:04:54.751Z,7.83
2023-03-26T17:07:36.085Z,6.20
2023-03-26T17:10:16.018Z,6.80
2023-03-26T17:12:50.356Z,8.50
2023-03-26T17:15:33.366Z,2.77
2023-03-26T17:18:25.474Z,5.03
2023-03-26T17:21:02.130Z,8.03
2023-03-26T17:23:48.035Z,3.83
2023-03-26T17:26:25.338Z,5.73
2023-03-26T17:29:10.484Z,6.13
2023-03-26T17:31:44.364Z,5.40
2023-03-26T17:34:34.475Z,3.47
2023-03-26T17:37:05.745Z,5.80
2023-03-26T17:40:37.888Z,5.90
2023-03-26T17:43:11.138Z,7.07
2023-03-26T17:45:40.484Z,6.20
2023-03-26T17:48:16.629Z,4.80
2023-03-26T17:50:51.824Z,3.53
2023-03-26T17:53:25.031Z,3.43
2023-03-26T17:55:56.372Z,5.67
2023-03-26T17:58:29.067Z,5.50
2023-03-26T18:01:06.757Z,7.23
2023-03-26T18:03:40.898Z,7.40
2023-03-26T18:06:12.130Z,8.00
2023-03-26T18:08:50.748Z,6.47
2023-03-26T18:11:51.003Z,12.73
2023-03-26T18:14:48.194Z,3.70
2023-03-26T18:17:16.500Z,8.33
2023-03-26T18:19:49.782Z,4.33
2023-03-26T18:22:22.953Z,10.37
2023-03-26T18:24:51.802Z,5.80
2023-03-26T18:27:23.404Z,3.33
2023-03-26T18:30:03.030Z,5.27
2023-03-26T18:32:33.513Z,8.53
2023-03-26T18:35:14.334Z,6.73
2023-03-26T18:37:46.033Z,3.27
2023-03-26T18:40:19.117Z,4.43
2023-03-26T18:42:51.930Z,6.53
2023-03-26T18:45:26.429Z,6.43
2023-03-26T18:47:56.722Z,5.30
2023-03-26T18:50:31.843Z,5.40
2023-03-26T18:53:01.156Z,5.93
2023-03-26T18:55:30.758Z,7.67
2023-03-26T18:57:59.911Z,6.10
2023-03-26T19:00:30.348Z,6.30
2023-03-26T19:03:04.550Z,3.43
2023-03-26T19:05:34.686Z,2.43
2023-03-26T19:08:04.832Z,5.03
2023-03-26T19:10:34.168Z,3.77
2023-03-26T19:13:04.334Z,3.70
2023-03-26T19:15:34.348Z,5.23
2023-03-26T19:18:07.293Z,6.37
2023-03-26T19:20:41.629Z,7.67
2023-03-26T19:23:14.698Z,4.80
2023-03-26T19:25:47.457Z,4.43
2023-03-26T19:28:20.669Z,3.53
2023-03-26T19:30:53.351Z,2.97
2023-03-26T19:33:22.472Z,5.47
2023-03-26T19:35:55.456Z,5.40
2023-03-26T19:38:27.093Z,4.77
2023-03-26T19:40:57.523Z,5.57
2023-03-26T19:43:27.613Z,5.77
2023-03-26T19:46:00.266Z,3.80
2023-03-26T19:48:46.197Z,2.60
2023-03-26T19:51:22.632Z,6.63
2023-03-26T19:53:54.220Z,3.53
2023-03-26T19:56:23.217Z,5.80
2023-03-26T19:58:52.465Z,4.83
2023-03-26T20:01:22.852Z,5.43
2023-03-26T20:03:52.770Z,3.60
2023-03-26T20:06:30.733Z,1.77
2023-03-26T20:09:04.640Z,5.33
2023-03-26T20:11:34.335Z,5.20
2023-03-26T20:14:08.150Z,2.53
2023-03-26T20:16:36.059Z,5.40
2023-03-26T20:19:04.413Z,3.40
2023-03-26T20:21:34.631Z,4.63
2023-03-26T20:24:02.943Z,3.30
2023-03-26T20:26:30.653Z,4.67
2023-03-26T20:28:58.904Z,2.70
2023-03-26T20:31:28.638Z,3.73
2023-03-26T20:33:56.452Z,7.40
2023-03-26T20:36:34.059Z,4.00
2023-03-26T20:39:05.809Z,4.63
2023-03-26T20:41:34.335Z,2.50
2023-03-26T20:44:05.691Z,4.47
2023-03-26T20:46:34.852Z,4.90
2023-03-26T20:49:02.590Z,4.27
2023-03-26T20:51:30.260Z,4.67
2023-03-26T20:53:58.004Z,5.00
2023-03-26T20:56:25.818Z,8.73
2023-03-26T20:59:09.823Z,6.20
2023-03-26T21:01:39.972Z,4.00
2023-03-26T21:04:07.910Z,5.97
2023-03-26T21:06:35.825Z,4.67
2023-03-26T21:09:04.129Z,4.20
2023-03-26T21:11:45.352Z,7.50
2023-03-26T21:14:20.857Z,4.13
2023-03-26T21:16:50.838Z,4.37
2023-03-26T21:19:19.194Z,4.97
2023-03-26T21:21:59.451Z,4.90
2023-03-26T21:24:45.104Z,8.13
2023-03-26T21:27:22.273Z,4.97
2023-03-26T21:29:50.412Z,8.83
2023-03-26T21:32:20.347Z,11.23
2023-03-26T21:34:58.098Z,7.37
2023-03-26T21:37:27.916Z,5.80
2023-03-26T21:39:56.109Z,4.13
2023-03-26T21:42:26.858Z,4.70
2023-03-26T21:44:55.104Z,3.93
2023-03-26T21:47:24.700Z,5.77
2023-03-26T21:49:54.650Z,4.77
2023-03-26T21:52:23.916Z,7.10
2023-03-26T21:54:52.510Z,6.33
2023-03-26T21:57:40.515Z,5.07
2023-03-26T22:00:15.198Z,6.77
2023-03-26T22:02:57.256Z,3.80
2023-03-26T22:05:32.781Z,5.90
2023-03-26T22:08:02.925Z,7.77
2023-03-26T22:10:32.030Z,5.63
2023-03-26T22:12:59.932Z,7.17
2023-03-26T22:15:30.586Z,5.90
2023-03-26T22:18:02.378Z,5.23
2023-03-26T22:20:30.440Z,6.77
2023-03-26T22:22:59.679Z,7.37
2023-03-26T22:25:27.607Z,7.77
2023-03-26T22:27:55.404Z,4.80
2023-03-26T22:30:23.145Z,10.13
2023-03-26T22:32:51.732Z,6.63
2023-03-26T22:35:21.077Z,4.57
2023-03-26T22:37:48.966Z,4.67
2023-03-26T22:40:17.897Z,5.73
2023-03-26T22:42:45.735Z,9.63
2023-03-26T22:45:13.747Z,7.47
2023-03-26T22:47:41.536Z,3.20
2023-03-26T22:50:10.754Z,6.10
2023-03-26T22:52:40.755Z,10.40
2023-03-26T22:55:11.002Z,6.80
2023-03-26T22:57:39.051Z,7.20
2023-03-26T23:00:16.117Z,8.07
2023-03-26T23:02:45.768Z,8.13
2023-03-26T23:05:14.128Z,6.27
2023-03-26T23:07:43.588Z,12.77
2023-03-26T23:10:12.150Z,7.60
2023-03-26T23:12:40.339Z,9.97
2023-03-26T23:15:09.924Z,5.70
2023-03-26T23:17:38.953Z,6.50
2023-03-26T23:20:14.624Z,8.20
2023-03-26T23:22:44.760Z,7.67
2023-03-26T23:25:13.636Z,6.63
2023-03-26T23:27:41.587Z,4.10
2023-03-26T23:30:11.796Z,5.80
2023-03-26T23:32:40.655Z,3.17
2023-03-26T23:35:09.034Z,10.37
2023-03-26T23:37:36.694Z,4.27
2023-03-26T23:40:10.003Z,6.90
2023-03-26T23:42:38.416Z,7.23
2023-03-26T23:45:08.425Z,4.23
2023-03-26T23:47:37.280Z,7.27
2023-03-26T23:50:05.890Z,4.67
2023-03-26T23:52:33.738Z,4.57
2023-03-26T23:55:01.454Z,7.87
2023-03-26T23:57:31.886Z,5.70
2023-03-26T23:59:59.653Z,11.13
